createdAt,value
2022-09-23T00:01:21.861Z,22.40
2022-09-23T00:03:49.702Z,14.25
2022-09-23T00:06:23.008Z,14.07
2022-09-23T00:08:52.221Z,12.43
2022-09-23T00:11:25.660Z,14.20
2022-09-23T00:13:56.791Z,13.80
2022-09-23T00:16:28.836Z,13.07
2022-09-23T00:18:56.666Z,17.73
2022-09-23T00:21:25.081Z,14.23
2022-09-23T00:23:52.706Z,11.68
2022-09-23T00:26:22.565Z,14.52
2022-09-23T00:28:51.027Z,13.95
2022-09-23T00:31:21.933Z,12.20
2022-09-23T00:33:56.983Z,13.10
2022-09-23T00:36:25.305Z,14.95
2022-09-23T00:38:54.043Z,14.30
2022-09-23T00:41:22.085Z,13.90
2022-09-23T00:43:51.102Z,14.05
2022-09-23T00:46:26.405Z,16.33
2022-09-23T00:49:00.945Z,15.43
2022-09-23T00:51:35.643Z,16.95
2022-09-23T00:54:04.349Z,17.48
2022-09-23T00:56:33.949Z,15.55
2022-09-23T00:59:02.400Z,13.85
2022-09-23T01:01:30.167Z,12.60
2022-09-23T01:03:58.663Z,17.38
2022-09-23T01:06:26.336Z,12.13
2022-09-23T01:08:54.254Z,14.90
2022-09-23T01:11:39.783Z,16.40
2022-09-23T01:14:17.003Z,14.43
2022-09-23T01:16:59.840Z,15.85
2022-09-23T01:19:45.663Z,18.67
2022-09-23T01:22:40.157Z,11.63
2022-09-23T01:25:27.898Z,19.35
2022-09-23T01:28:37.144Z,14.30
2022-09-23T01:31:14.876Z,17.15
2022-09-23T01:34:01.591Z,14.45
2022-09-23T01:36:44.013Z,16.65
2022-09-23T01:39:33.873Z,16.88
2022-09-23T01:42:22.661Z,17.02
2022-09-23T01:45:16.511Z,15.82
2022-09-23T01:47:52.345Z,13.18
2022-09-23T01:50:43.199Z,14.13
2022-09-23T01:53:22.010Z,20.80
2022-09-23T01:55:57.293Z,15.43
2022-09-23T01:58:52.116Z,17.05
2022-09-23T02:01:31.946Z,21.77
2022-09-23T02:04:08.618Z,14.82
2022-09-23T02:06:44.140Z,16.13
2022-09-23T02:09:17.831Z,16.30
2022-09-23T02:11:49.020Z,16.80
2022-09-23T02:14:32.321Z,13.93
2022-09-23T02:17:08.460Z,16.13
2022-09-23T02:19:46.166Z,19.30
2022-09-23T02:22:27.571Z,16.08
2022-09-23T02:24:57.582Z,14.38
2022-09-23T02:27:31.256Z,16.80
2022-09-23T02:30:27.053Z,15.02
2022-09-23T02:33:04.183Z,16.27
2022-09-23T02:35:44.039Z,16.15
2022-09-23T02:38:27.351Z,14.77
2022-09-23T02:41:05.411Z,14.20
2022-09-23T02:43:40.130Z,14.73
2022-09-23T02:46:08.477Z,16.00
2022-09-23T02:48:53.173Z,16.27
2022-09-23T02:51:20.974Z,14.50
2022-09-23T02:53:48.852Z,19.10
2022-09-23T02:56:19.004Z,15.77
2022-09-23T02:58:47.897Z,14.38
2022-09-23T03:01:33.772Z,16.63
2022-09-23T03:04:17.314Z,16.60
2022-09-23T03:06:54.165Z,16.50
2022-09-23T03:09:30.998Z,18.35
2022-09-23T03:12:14.136Z,16.50
2022-09-23T03:14:59.711Z,16.88
2022-09-23T03:17:37.557Z,17.63
2022-09-23T03:20:35.114Z,15.88
2022-09-23T03:23:07.897Z,15.90
2022-09-23T03:25:39.943Z,15.63
2022-09-23T03:28:08.909Z,15.27
2022-09-23T03:30:37.848Z,15.48
2022-09-23T03:33:08.982Z,18.55
2022-09-23T03:36:01.918Z,15.07
2022-09-23T03:38:36.139Z,19.10
2022-09-23T03:41:05.025Z,17.23
2022-09-23T03:43:37.966Z,15.35
2022-09-23T03:46:07.172Z,20.05
2022-09-23T03:48:34.881Z,17.33
2022-09-23T03:51:20.438Z,19.17
2022-09-23T03:53:48.190Z,16.92
2022-09-23T03:56:16.022Z,25.70
2022-09-23T03:58:45.373Z,17.27
2022-09-23T04:01:14.791Z,16.67
2022-09-23T04:03:42.549Z,18.60
2022-09-23T04:06:10.145Z,17.73
2022-09-23T04:08:37.866Z,21.75
2022-09-23T04:11:06.009Z,13.82
2022-09-23T04:13:33.690Z,15.68
2022-09-23T04:16:01.650Z,19.63
2022-09-23T04:18:29.197Z,15.93
2022-09-23T04:21:00.232Z,15.63
2022-09-23T04:23:28.462Z,15.50
2022-09-23T04:25:56.200Z,19.40
2022-09-23T04:28:24.023Z,16.80
2022-09-23T04:30:51.777Z,14.82
2022-09-23T04:33:19.266Z,24.40
2022-09-23T04:35:51.690Z,13.55
2022-09-23T04:38:19.818Z,16.75
2022-09-23T04:40:47.341Z,14.93
2022-09-23T04:43:16.822Z,16.65
2022-09-23T04:45:45.066Z,16.10
2022-09-23T04:48:14.346Z,15.07
2022-09-23T04:50:42.105Z,20.90
2022-09-23T04:53:09.561Z,15.65
2022-09-23T04:55:37.390Z,14.73
2022-09-23T04:58:04.859Z,16.45
2022-09-23T05:00:33.550Z,14.35
2022-09-23T05:03:01.021Z,17.27
2022-09-23T05:05:29.734Z,17.70
2022-09-23T05:07:57.864Z,16.13
2022-09-23T05:10:25.322Z,19.15
2022-09-23T05:12:57.043Z,14.60
2022-09-23T05:15:25.002Z,17.85
2022-09-23T05:17:52.495Z,17.58
2022-09-23T05:20:20.636Z,14.57
2022-09-23T05:22:48.097Z,13.68
2022-09-23T05:25:15.623Z,18.05
2022-09-23T05:27:43.299Z,18.83
2022-09-23T05:30:11.531Z,14.57
2022-09-23T05:32:38.987Z,18.00
2022-09-23T05:35:06.497Z,13.30
2022-09-23T05:37:34.211Z,23.52
2022-09-23T05:40:01.835Z,18.90
2022-09-23T05:42:29.434Z,16.98
2022-09-23T05:44:57.003Z,21.88
2022-09-23T05:47:24.559Z,18.52
2022-09-23T05:50:00.522Z,14.50
2022-09-23T05:52:28.565Z,17.92
2022-09-23T05:54:56.154Z,15.35
2022-09-23T05:57:23.624Z,17.10
2022-09-23T05:59:51.131Z,17.67
2022-09-23T06:02:18.667Z,15.88
2022-09-23T06:04:46.210Z,15.63
2022-09-23T06:07:13.690Z,19.13
2022-09-23T06:09:42.237Z,14.82
2022-09-23T06:12:09.705Z,12.35
2022-09-23T06:14:37.152Z,14.95
2022-09-23T06:17:05.549Z,15.43
2022-09-23T06:19:32.980Z,12.23
2022-09-23T06:22:00.437Z,17.35
2022-09-23T06:24:31.285Z,13.70
2022-09-23T06:26:58.852Z,14.75
2022-09-23T06:29:26.493Z,13.02
2022-09-23T06:31:54.031Z,18.55
2022-09-23T06:34:21.754Z,13.18
2022-09-23T06:36:51.536Z,14.95
2022-09-23T06:39:19.030Z,13.68
2022-09-23T06:41:46.540Z,13.70
2022-09-23T06:44:17.079Z,19.92
2022-09-23T06:46:44.855Z,16.45
2022-09-23T06:49:12.894Z,12.88
2022-09-23T06:51:40.607Z,14.10
2022-09-23T06:54:08.340Z,12.70
2022-09-23T06:56:39.241Z,13.50
2022-09-23T06:59:08.901Z,20.00
2022-09-23T07:01:36.625Z,11.50
2022-09-23T07:04:04.151Z,15.35
2022-09-23T07:06:31.687Z,11.23
2022-09-23T07:08:59.205Z,13.98
2022-09-23T07:11:27.043Z,14.75
2022-09-23T07:13:54.563Z,16.77
2022-09-23T07:16:23.360Z,13.20
2022-09-23T07:18:52.362Z,13.23
2022-09-23T07:21:20.363Z,15.63
2022-09-23T07:23:50.428Z,15.02
2022-09-23T07:26:19.313Z,13.73
2022-09-23T07:28:46.986Z,17.48
2022-09-23T07:31:28.643Z,15.80
2022-09-23T07:34:03.328Z,10.23
2022-09-23T07:36:32.720Z,12.40
2022-09-23T07:39:03.188Z,13.98
2022-09-23T07:41:32.979Z,13.43
2022-09-23T07:44:01.226Z,13.05
2022-09-23T07:46:32.428Z,12.00
2022-09-23T07:49:00.378Z,10.70
2022-09-23T07:51:35.699Z,13.60
2022-09-23T07:54:07.284Z,16.05
2022-09-23T07:56:36.138Z,11.95
2022-09-23T07:59:04.486Z,11.77
2022-09-23T08:01:35.084Z,12.85
2022-09-23T08:04:12.382Z,13.52
2022-09-23T08:06:54.590Z,11.55
2022-09-23T08:09:24.772Z,12.15
2022-09-23T08:11:52.472Z,8.75
2022-09-23T08:14:22.269Z,11.05
2022-09-23T08:16:50.363Z,11.60
2022-09-23T08:19:18.383Z,11.10
2022-09-23T08:21:47.874Z,11.10
2022-09-23T08:24:20.859Z,7.88
2022-09-23T08:26:49.538Z,10.70
2022-09-23T08:29:19.208Z,10.65
2022-09-23T08:31:48.048Z,13.20
2022-09-23T08:34:16.158Z,12.45
2022-09-23T08:36:44.261Z,9.23
2022-09-23T08:39:18.592Z,8.85
2022-09-23T08:41:58.425Z,11.68
2022-09-23T08:44:36.034Z,11.35
2022-09-23T08:47:22.336Z,9.48
2022-09-23T08:50:00.275Z,9.88
2022-09-23T08:52:36.963Z,10.50
2022-09-23T08:55:06.067Z,11.38
2022-09-23T08:57:36.498Z,9.63
2022-09-23T09:00:05.976Z,11.32
2022-09-23T09:02:36.337Z,8.18
2022-09-23T09:05:09.096Z,7.93
2022-09-23T09:07:40.029Z,8.38
2022-09-23T09:10:13.594Z,6.30
2022-09-23T09:12:48.655Z,12.13
2022-09-23T09:15:26.615Z,11.35
2022-09-23T09:18:03.042Z,9.52
2022-09-23T09:20:38.975Z,8.80
2022-09-23T09:23:46.693Z,8.82
2022-09-23T09:26:22.683Z,10.82
2022-09-23T09:28:59.073Z,10.10
2022-09-23T09:31:39.278Z,9.90
2022-09-23T09:34:34.072Z,8.13
2022-09-23T09:37:06.734Z,10.55
2022-09-23T09:39:35.948Z,8.70
2022-09-23T09:42:06.484Z,6.68
2022-09-23T09:44:44.947Z,8.52
2022-09-23T09:47:29.561Z,8.50
2022-09-23T09:50:04.575Z,8.85
2022-09-23T09:52:32.364Z,7.47
2022-09-23T09:55:15.033Z,10.20
2022-09-23T09:57:57.551Z,11.40
2022-09-23T10:00:26.310Z,10.60
2022-09-23T10:02:56.543Z,12.43
2022-09-23T10:05:33.267Z,13.98
2022-09-23T10:08:28.527Z,8.18
2022-09-23T10:11:18.076Z,9.93
2022-09-23T10:14:18.579Z,9.13
2022-09-23T10:16:48.841Z,11.23
2022-09-23T10:19:26.853Z,8.30
2022-09-23T10:21:59.851Z,8.73
2022-09-23T10:24:30.969Z,7.38
2022-09-23T10:27:04.474Z,12.55
2022-09-23T10:29:49.578Z,8.05
2022-09-23T10:32:22.575Z,11.85
2022-09-23T10:34:54.890Z,8.38
2022-09-23T10:37:29.645Z,7.35
2022-09-23T10:40:15.071Z,8.38
2022-09-23T10:43:08.745Z,7.78
2022-09-23T10:45:58.265Z,10.85
2022-09-23T10:48:35.835Z,8.63
2022-09-23T10:51:14.435Z,9.23
2022-09-23T10:54:07.375Z,9.38
2022-09-23T10:56:47.435Z,7.50
2022-09-23T10:59:30.283Z,8.07
2022-09-23T11:02:17.099Z,8.00
2022-09-23T11:04:51.772Z,8.32
2022-09-23T11:07:37.284Z,9.32
2022-09-23T11:10:46.446Z,7.65
2022-09-23T11:13:41.112Z,9.57
2022-09-23T11:16:47.778Z,11.48
2022-09-23T11:19:56.494Z,7.32
2022-09-23T11:22:57.848Z,6.85
2022-09-23T11:25:37.248Z,5.80
2022-09-23T11:28:18.012Z,4.20
2022-09-23T11:30:54.201Z,7.03
2022-09-23T11:33:30.544Z,10.07
2022-09-23T11:36:03.834Z,6.65
2022-09-23T11:38:38.501Z,6.57
2022-09-23T11:41:20.751Z,4.95
2022-09-23T11:46:34.039Z,6.75
2022-09-23T11:49:04.864Z,5.45
2022-09-23T11:51:43.632Z,7.47
2022-09-23T11:54:20.847Z,7.60
2022-09-23T11:56:53.562Z,12.02
2022-09-23T11:59:41.241Z,4.07
2022-09-23T12:02:29.647Z,6.68
2022-09-23T12:05:12.373Z,6.45
2022-09-23T12:07:40.694Z,8.25
2022-09-23T12:10:10.284Z,6.25
2022-09-23T12:13:04.783Z,6.38
2022-09-23T12:15:53.526Z,5.50
2022-09-23T12:18:43.396Z,4.03
2022-09-23T12:21:38.729Z,7.22
2022-09-23T12:24:38.577Z,7.30
2022-09-23T12:27:12.886Z,5.60
2022-09-23T12:29:42.243Z,11.38
2022-09-23T12:32:18.745Z,4.30
2022-09-23T12:34:51.923Z,7.68
2022-09-23T12:37:43.359Z,13.27
2022-09-23T12:40:24.012Z,4.90
2022-09-23T12:42:52.334Z,7.10
2022-09-23T12:45:32.496Z,6.85
2022-09-23T12:48:05.347Z,5.35
2022-09-23T12:51:05.316Z,5.30
2022-09-23T12:53:35.603Z,7.68
2022-09-23T12:56:17.144Z,6.13
2022-09-23T12:58:44.690Z,7.93
2022-09-23T13:01:21.725Z,6.85
2022-09-23T13:04:17.129Z,5.40
2022-09-23T13:06:59.030Z,6.97
2022-09-23T13:09:32.471Z,8.95
2022-09-23T13:12:03.617Z,7.70
2022-09-23T13:14:33.889Z,5.67
2022-09-23T13:17:01.882Z,9.48
2022-09-23T13:19:29.330Z,7.63
2022-09-23T13:22:12.139Z,7.00
2022-09-23T13:24:45.437Z,7.53
2022-09-23T13:27:21.285Z,5.30
2022-09-23T13:30:14.996Z,8.40
2022-09-23T13:32:51.617Z,7.75
2022-09-23T13:35:42.904Z,9.68
2022-09-23T13:38:26.156Z,11.77
2022-09-23T13:41:02.186Z,9.88
2022-09-23T13:43:41.553Z,9.80
2022-09-23T13:46:14.474Z,8.80
2022-09-23T13:48:45.309Z,14.65
2022-09-23T13:51:24.658Z,8.77
2022-09-23T13:53:57.447Z,11.38
2022-09-23T13:56:27.884Z,10.70
2022-09-23T13:59:11.446Z,12.75
2022-09-23T14:01:39.002Z,10.23
2022-09-23T14:04:06.684Z,11.05
2022-09-23T14:06:42.099Z,9.75
2022-09-23T14:09:09.664Z,7.80
2022-09-23T14:11:37.239Z,9.27
2022-09-23T14:14:07.127Z,8.85
2022-09-23T14:16:39.323Z,9.32
2022-09-23T14:19:07.856Z,9.38
2022-09-23T14:21:41.033Z,7.68
2022-09-23T14:24:11.578Z,7.22
2022-09-23T14:26:40.855Z,10.52
2022-09-23T14:29:16.505Z,14.25
2022-09-23T14:31:56.629Z,8.77
2022-09-23T14:34:48.093Z,16.98
2022-09-23T14:37:51.111Z,7.63
2022-09-23T14:40:25.817Z,8.98
2022-09-23T14:43:18.084Z,5.75
2022-09-23T14:45:53.488Z,11.25
2022-09-23T14:48:25.753Z,8.38
2022-09-23T14:50:58.663Z,8.68
2022-09-23T14:53:29.240Z,7.95
2022-09-23T14:56:08.167Z,11.10
2022-09-23T14:59:02.027Z,8.65
2022-09-23T15:01:32.760Z,6.57
2022-09-23T15:04:10.214Z,11.65
2022-09-23T15:06:40.615Z,9.82
2022-09-23T15:09:08.446Z,8.52
2022-09-23T15:11:36.929Z,8.60
2022-09-23T15:14:26.360Z,6.63
2022-09-23T15:16:54.414Z,7.40
2022-09-23T15:19:23.732Z,7.50
2022-09-23T15:21:54.709Z,8.70
2022-09-23T15:24:46.172Z,8.52
2022-09-23T15:27:35.254Z,8.70
2022-09-23T15:30:18.679Z,13.48
2022-09-23T15:32:47.225Z,7.63
2022-09-23T15:35:20.961Z,8.30
2022-09-23T15:37:51.484Z,8.95
2022-09-23T15:40:28.125Z,8.18
2022-09-23T15:42:58.905Z,7.57
2022-09-23T15:45:31.415Z,7.10
2022-09-23T15:48:03.202Z,8.88
2022-09-23T15:50:31.453Z,6.22
2022-09-23T15:52:59.289Z,7.50
2022-09-23T15:55:26.841Z,10.02
2022-09-23T15:57:54.421Z,11.98
2022-09-23T16:00:21.992Z,7.43
2022-09-23T16:02:50.517Z,8.50
2022-09-23T16:05:37.742Z,10.27
2022-09-23T16:08:09.156Z,12.30
2022-09-23T16:10:37.758Z,12.88
2022-09-23T16:13:08.955Z,10.80
2022-09-23T16:15:38.975Z,13.73
2022-09-23T16:18:08.047Z,11.13
2022-09-23T16:20:38.772Z,16.00
2022-09-23T16:23:19.571Z,13.38
2022-09-23T16:25:47.124Z,12.98
2022-09-23T16:28:14.642Z,11.85
2022-09-23T16:30:42.097Z,10.10
2022-09-23T16:33:09.637Z,15.50
2022-09-23T16:35:38.561Z,14.45
2022-09-23T16:38:06.027Z,13.18
2022-09-23T16:40:33.934Z,16.20
2022-09-23T16:43:04.959Z,16.73
2022-09-23T16:45:32.507Z,17.27
2022-09-23T16:48:00.371Z,13.65
2022-09-23T16:50:29.249Z,15.35
2022-09-23T16:52:56.964Z,13.45
2022-09-23T16:55:27.242Z,15.95
2022-09-23T16:57:55.493Z,19.02
2022-09-23T17:00:41.492Z,23.92
2022-09-23T17:03:26.594Z,20.13
2022-09-23T17:05:55.314Z,19.73
2022-09-23T17:08:23.045Z,17.08
2022-09-23T17:10:58.347Z,21.85
2022-09-23T17:13:27.410Z,22.38
2022-09-23T17:15:55.358Z,17.75
2022-09-23T17:18:23.218Z,23.33
2022-09-23T17:21:07.953Z,21.02
2022-09-23T17:23:37.462Z,19.38
2022-09-23T17:26:09.673Z,23.45
2022-09-23T17:31:06.875Z,22.23
2022-09-23T17:33:37.239Z,22.73
2022-09-23T17:36:13.361Z,27.30
2022-09-23T17:38:43.234Z,21.83
2022-09-23T17:41:10.928Z,20.27
2022-09-23T17:43:38.433Z,23.00
2022-09-23T17:46:14.537Z,23.95
2022-09-23T17:48:43.247Z,18.50
2022-09-23T17:51:20.049Z,22.42
2022-09-23T17:53:49.366Z,18.38
2022-09-23T17:56:29.780Z,23.65
2022-09-23T17:59:01.537Z,22.42
2022-09-23T18:01:29.259Z,19.80
2022-09-23T18:03:57.440Z,22.77
2022-09-23T18:06:26.738Z,22.13
2022-09-23T18:08:55.864Z,22.33
2022-09-23T18:11:28.936Z,26.42
2022-09-23T18:13:59.927Z,26.90
2022-09-23T18:16:35.545Z,25.65
2022-09-23T18:19:04.728Z,18.23
2022-09-23T18:21:35.028Z,26.58
2022-09-23T18:26:51.086Z,22.80
2022-09-23T18:29:19.543Z,22.40
2022-09-23T18:31:49.332Z,22.17
2022-09-23T18:34:17.314Z,22.50
2022-09-23T18:36:45.410Z,21.65
2022-09-23T18:39:13.312Z,21.27
2022-09-23T18:41:41.203Z,22.45
2022-09-23T18:44:09.000Z,24.40
2022-09-23T18:46:37.157Z,19.40
2022-09-23T18:49:22.332Z,24.02
2022-09-23T18:51:53.643Z,21.00
2022-09-23T18:54:21.645Z,26.10
2022-09-23T18:56:49.496Z,22.42
2022-09-23T18:59:20.375Z,25.08
2022-09-23T19:01:50.064Z,26.38
2022-09-23T19:04:20.112Z,24.52
2022-09-23T19:06:47.719Z,24.30
2022-09-23T19:09:16.543Z,21.48
2022-09-23T19:11:44.350Z,20.25
2022-09-23T19:14:12.846Z,22.92
2022-09-23T19:16:41.530Z,25.13
2022-09-23T19:19:09.778Z,27.88
2022-09-23T19:21:37.866Z,24.13
2022-09-23T19:24:08.151Z,22.45
2022-09-23T19:26:40.198Z,24.15
2022-09-23T19:29:12.671Z,24.15
2022-09-23T19:31:41.510Z,21.50
2022-09-23T19:34:16.558Z,21.15
2022-09-23T19:36:45.847Z,25.63
2022-09-23T19:39:22.171Z,29.58
2022-09-23T19:41:50.821Z,26.05
2022-09-23T19:44:19.872Z,23.17
2022-09-23T19:46:53.462Z,29.95
2022-09-23T19:49:23.876Z,20.27
2022-09-23T19:51:51.439Z,23.23
2022-09-23T19:54:21.014Z,26.33
2022-09-23T19:56:50.900Z,33.40
2022-09-23T19:59:19.527Z,28.73
2022-09-23T20:01:48.701Z,24.27
2022-09-23T20:04:17.419Z,28.25
2022-09-23T20:06:45.905Z,29.02
2022-09-23T20:09:13.631Z,29.38
2022-09-23T20:11:44.104Z,29.90
2022-09-23T20:14:12.963Z,27.20
2022-09-23T20:16:40.513Z,30.77
2022-09-23T20:19:08.091Z,31.08
2022-09-23T20:21:36.349Z,25.90
2022-09-23T20:24:06.482Z,24.85
2022-09-23T20:26:51.362Z,31.23
2022-09-23T20:29:18.877Z,22.52
2022-09-23T20:31:46.425Z,25.48
2022-09-23T20:34:13.957Z,25.23
2022-09-23T20:36:42.492Z,21.20
2022-09-23T20:39:10.904Z,22.25
2022-09-23T20:41:39.830Z,21.02
2022-09-23T20:44:13.829Z,22.38
2022-09-23T20:46:47.814Z,22.23
2022-09-23T20:49:17.736Z,20.17
2022-09-23T20:51:45.535Z,20.80
2022-09-23T20:54:13.105Z,19.95
2022-09-23T20:56:40.894Z,19.58
2022-09-23T20:59:08.618Z,19.98
2022-09-23T21:01:37.001Z,19.42
2022-09-23T21:04:07.562Z,18.75
2022-09-23T21:06:39.221Z,20.38
2022-09-23T21:09:07.765Z,19.08
2022-09-23T21:11:35.671Z,17.42
2022-09-23T21:14:05.245Z,19.58
2022-09-23T21:16:34.040Z,19.60
2022-09-23T21:19:02.893Z,21.48
2022-09-23T21:21:30.551Z,25.05
2022-09-23T21:24:17.360Z,22.98
2022-09-23T21:26:47.816Z,20.05
2022-09-23T21:29:15.279Z,20.38
2022-09-23T21:31:42.819Z,19.50
2022-09-23T21:34:12.463Z,19.45
2022-09-23T21:36:42.766Z,26.70
2022-09-23T21:39:12.058Z,24.10
2022-09-23T21:41:40.499Z,23.27
2022-09-23T21:44:08.704Z,20.17
2022-09-23T21:46:37.122Z,20.42
2022-09-23T21:49:05.302Z,24.67
2022-09-23T21:51:37.694Z,19.27
2022-09-23T21:54:05.963Z,23.00
2022-09-23T21:56:36.560Z,23.95
2022-09-23T21:59:05.106Z,25.48
2022-09-23T22:01:38.227Z,23.40
2022-09-23T22:04:10.099Z,26.38
2022-09-23T22:06:39.770Z,27.70
2022-09-23T22:09:10.162Z,29.60
2022-09-23T22:11:57.435Z,29.33
2022-09-23T22:14:26.581Z,32.10
2022-09-23T22:16:57.572Z,29.83
2022-09-23T22:19:34.708Z,29.33
2022-09-23T22:22:03.744Z,30.98
2022-09-23T22:24:31.225Z,27.98
2022-09-23T22:26:58.683Z,28.38
2022-09-23T22:29:43.571Z,23.58
2022-09-23T22:32:29.961Z,24.73
2022-09-23T22:34:57.896Z,23.65
2022-09-23T22:37:30.340Z,26.90
2022-09-23T22:39:58.124Z,24.45
2022-09-23T22:42:26.162Z,29.90
2022-09-23T22:44:55.459Z,29.27
2022-09-23T22:47:23.591Z,25.83
2022-09-23T22:49:55.318Z,26.13
2022-09-23T22:52:24.400Z,27.35
2022-09-23T22:54:53.081Z,31.13
2022-09-23T22:57:20.873Z,28.15
2022-09-23T22:59:49.003Z,28.70
2022-09-23T23:02:21.838Z,30.48
2022-09-23T23:04:50.030Z,30.52
2022-09-23T23:07:21.767Z,30.95
2022-09-23T23:09:53.273Z,31.60
2022-09-23T23:12:21.335Z,33.95
2022-09-23T23:14:50.048Z,36.53
2022-09-23T23:17:18.953Z,32.15
2022-09-23T23:19:46.713Z,37.28
2022-09-23T23:22:14.292Z,35.58
2022-09-23T23:24:41.788Z,34.63
2022-09-23T23:27:09.250Z,33.47
2022-09-23T23:29:36.807Z,36.60
2022-09-23T23:32:05.062Z,36.70
2022-09-23T23:34:32.521Z,33.45
2022-09-23T23:36:59.977Z,38.30
2022-09-23T23:39:27.434Z,39.65
2022-09-23T23:41:56.850Z,38.17
2022-09-23T23:44:25.567Z,36.90
2022-09-23T23:46:54.052Z,38.55
2022-09-23T23:49:21.905Z,33.72
2022-09-23T23:51:49.722Z,38.42
2022-09-23T23:54:17.520Z,30.08
2022-09-23T23:56:45.329Z,29.02
2022-09-23T23:59:12.991Z,30.67
